East Lawrenceville, Pennsylvania
Current Conditions -  °F | °C
As of 8:53 AM on Wednesday 28 Jan 2015 (Local Time) from KELM Reporting Station
Clear Clear  
Wind Chill: -11°   Ceiling: Unl
Heat Index:   Visibility: 10mi
Dew Point: -3°   Wind: 7mph
Humidity: 80%   Direction: 240°WSW
Pressure: 30.19"   Gusts: NA
Location:  41.971°N, 77.1237°W
Report Text: KELM 281353Z 24006KT 10SM CLR M17/M19 A3019 RMK AO2 SLP244 T11671194
Loading
Personal Weather Stations






























Interactive Weather Map New forecast layout! Learn more

10-Day Weather Forecast

Advertisements
Track Severe Weather on mobile